sensor_id;sensor_type;location;lat;lon;timestamp;P1;durP1;ratioP1;P2;durP2;ratioP2
37857;SDS011;23695;55.868;37.472;2022-09-03T00:00:50;5.65;;;2.97;;
37857;SDS011;23695;55.868;37.472;2022-09-03T00:03:23;3.95;;;2.83;;
37857;SDS011;23695;55.868;37.472;2022-09-03T00:06:17;6.55;;;2.50;;
37857;SDS011;23695;55.868;37.472;2022-09-03T00:09:04;2.80;;;2.50;;
37857;SDS011;23695;55.868;37.472;2022-09-03T00:11:48;4.68;;;2.55;;
37857;SDS011;23695;55.868;37.472;2022-09-03T00:14:25;2.90;;;2.38;;
37857;SDS011;23695;55.868;37.472;2022-09-03T00:17:01;6.20;;;2.58;;
37857;SDS011;23695;55.868;37.472;2022-09-03T00:19:36;5.80;;;3.25;;
37857;SDS011;23695;55.868;37.472;2022-09-03T00:22:44;4.60;;;3.00;;
37857;SDS011;23695;55.868;37.472;2022-09-03T00:25:10;6.20;;;2.90;;
37857;SDS011;23695;55.868;37.472;2022-09-03T00:27:40;3.80;;;2.85;;
37857;SDS011;23695;55.868;37.472;2022-09-03T00:30:12;4.78;;;2.72;;
37857;SDS011;23695;55.868;37.472;2022-09-03T00:32:47;7.25;;;2.95;;
37857;SDS011;23695;55.868;37.472;2022-09-03T00:35:48;4.63;;;2.80;;
37857;SDS011;23695;55.868;37.472;2022-09-03T00:38:19;4.25;;;2.85;;
37857;SDS011;23695;55.868;37.472;2022-09-03T01:00:28;4.00;;;2.50;;
37857;SDS011;23695;55.868;37.472;2022-09-03T01:14:01;3.00;;;2.40;;
37857;SDS011;23695;55.868;37.472;2022-09-03T01:16:52;4.10;;;3.15;;
37857;SDS011;23695;55.868;37.472;2022-09-03T01:28:26;5.93;;;2.90;;
37857;SDS011;23695;55.868;37.472;2022-09-03T01:31:07;5.97;;;2.88;;
37857;SDS011;23695;55.868;37.472;2022-09-03T01:39:25;3.38;;;2.75;;
37857;SDS011;23695;55.868;37.472;2022-09-03T01:42:01;4.05;;;2.83;;
37857;SDS011;23695;55.868;37.472;2022-09-03T01:47:37;4.93;;;2.45;;
37857;SDS011;23695;55.868;37.472;2022-09-03T01:55:22;5.68;;;2.78;;
37857;SDS011;23695;55.868;37.472;2022-09-03T01:58:18;5.85;;;3.22;;
37857;SDS011;23695;55.868;37.472;2022-09-03T02:00:52;4.95;;;2.95;;
37857;SDS011;23695;55.868;37.472;2022-09-03T02:03:25;5.68;;;3.10;;
37857;SDS011;23695;55.868;37.472;2022-09-03T02:06:07;7.30;;;3.13;;
37857;SDS011;23695;55.868;37.472;2022-09-03T02:08:36;3.97;;;3.00;;
37857;SDS011;23695;55.868;37.472;2022-09-03T02:11:04;5.25;;;3.03;;
37857;SDS011;23695;55.868;37.472;2022-09-03T02:13:35;2.95;;;2.63;;
37857;SDS011;23695;55.868;37.472;2022-09-03T02:18:47;7.00;;;3.95;;
37857;SDS011;23695;55.868;37.472;2022-09-03T02:21:18;5.05;;;3.20;;
37857;SDS011;23695;55.868;37.472;2022-09-03T02:23:47;3.83;;;2.77;;
37857;SDS011;23695;55.868;37.472;2022-09-03T02:26:15;4.38;;;3.00;;
37857;SDS011;23695;55.868;37.472;2022-09-03T02:28:47;5.88;;;2.70;;
37857;SDS011;23695;55.868;37.472;2022-09-03T02:31:15;3.85;;;2.88;;
37857;SDS011;23695;55.868;37.472;2022-09-03T02:33:44;3.90;;;2.85;;
37857;SDS011;23695;55.868;37.472;2022-09-03T02:36:14;6.30;;;2.78;;
37857;SDS011;23695;55.868;37.472;2022-09-03T02:38:43;3.70;;;2.70;;
37857;SDS011;23695;55.868;37.472;2022-09-03T02:41:11;3.58;;;2.65;;
37857;SDS011;23695;55.868;37.472;2022-09-03T02:46:12;3.72;;;2.95;;
37857;SDS011;23695;55.868;37.472;2022-09-03T02:48:44;4.72;;;2.90;;
37857;SDS011;23695;55.868;37.472;2022-09-03T02:51:11;4.53;;;2.90;;
37857;SDS011;23695;55.868;37.472;2022-09-03T02:53:40;5.10;;;2.90;;
37857;SDS011;23695;55.868;37.472;2022-09-03T02:56:09;5.53;;;3.10;;
37857;SDS011;23695;55.868;37.472;2022-09-03T02:58:36;3.72;;;2.90;;
37857;SDS011;23695;55.868;37.472;2022-09-03T03:01:03;3.88;;;3.30;;
37857;SDS011;23695;55.868;37.472;2022-09-03T03:03:31;4.05;;;3.13;;
37857;SDS011;23695;55.868;37.472;2022-09-03T03:06:00;9.23;;;3.25;;
37857;SDS011;23695;55.868;37.472;2022-09-03T03:08:30;4.15;;;3.20;;
37857;SDS011;23695;55.868;37.472;2022-09-03T03:10:59;4.22;;;3.47;;
37857;SDS011;23695;55.868;37.472;2022-09-03T03:13:28;4.28;;;2.60;;
37857;SDS011;23695;55.868;37.472;2022-09-03T03:16:00;11.60;;;3.58;;
37857;SDS011;23695;55.868;37.472;2022-09-03T03:18:28;3.80;;;3.40;;
37857;SDS011;23695;55.868;37.472;2022-09-03T03:20:55;4.60;;;3.42;;
37857;SDS011;23695;55.868;37.472;2022-09-03T03:23:23;4.22;;;3.38;;
37857;SDS011;23695;55.868;37.472;2022-09-03T03:25:50;10.98;;;3.72;;
37857;SDS011;23695;55.868;37.472;2022-09-03T03:28:17;5.53;;;3.40;;
37857;SDS011;23695;55.868;37.472;2022-09-03T03:30:45;3.90;;;3.03;;
37857;SDS011;23695;55.868;37.472;2022-09-03T03:33:14;4.93;;;2.95;;
37857;SDS011;23695;55.868;37.472;2022-09-03T03:35:41;3.85;;;2.60;;
37857;SDS011;23695;55.868;37.472;2022-09-03T03:38:08;5.93;;;2.55;;
37857;SDS011;23695;55.868;37.472;2022-09-03T03:40:37;4.15;;;2.10;;
37857;SDS011;23695;55.868;37.472;2022-09-03T03:43:04;4.13;;;1.80;;
37857;SDS011;23695;55.868;37.472;2022-09-03T03:45:31;3.20;;;2.00;;
37857;SDS011;23695;55.868;37.472;2022-09-03T03:47:58;1.80;;;1.60;;
37857;SDS011;23695;55.868;37.472;2022-09-03T03:50:26;4.85;;;2.00;;
37857;SDS011;23695;55.868;37.472;2022-09-03T03:52:53;4.53;;;1.80;;
37857;SDS011;23695;55.868;37.472;2022-09-03T03:55:20;3.10;;;1.65;;
37857;SDS011;23695;55.868;37.472;2022-09-03T03:57:52;4.60;;;1.60;;
37857;SDS011;23695;55.868;37.472;2022-09-03T04:00:19;2.45;;;1.38;;
37857;SDS011;23695;55.868;37.472;2022-09-03T04:02:50;2.67;;;1.60;;
37857;SDS011;23695;55.868;37.472;2022-09-03T04:05:17;2.05;;;1.35;;
37857;SDS011;23695;55.868;37.472;2022-09-03T04:07:48;1.67;;;1.50;;
37857;SDS011;23695;55.868;37.472;2022-09-03T04:10:15;3.08;;;1.40;;
37857;SDS011;23695;55.868;37.472;2022-09-03T04:12:42;3.90;;;1.52;;
37857;SDS011;23695;55.868;37.472;2022-09-03T04:15:09;1.98;;;1.58;;
37857;SDS011;23695;55.868;37.472;2022-09-03T04:17:36;3.60;;;2.97;;
37857;SDS011;23695;55.868;37.472;2022-09-03T04:20:05;3.03;;;2.05;;
37857;SDS011;23695;55.868;37.472;2022-09-03T04:22:32;3.60;;;2.05;;
37857;SDS011;23695;55.868;37.472;2022-09-03T04:24:59;4.10;;;2.08;;
37857;SDS011;23695;55.868;37.472;2022-09-03T04:27:26;3.78;;;2.13;;
37857;SDS011;23695;55.868;37.472;2022-09-03T04:29:53;4.72;;;2.70;;
37857;SDS011;23695;55.868;37.472;2022-09-03T04:32:20;3.60;;;3.30;;
37857;SDS011;23695;55.868;37.472;2022-09-03T04:35:06;5.32;;;3.33;;
37857;SDS011;23695;55.868;37.472;2022-09-03T04:37:33;5.80;;;3.22;;
37857;SDS011;23695;55.868;37.472;2022-09-03T04:40:00;3.58;;;2.70;;
37857;SDS011;23695;55.868;37.472;2022-09-03T04:42:28;4.03;;;3.20;;
37857;SDS011;23695;55.868;37.472;2022-09-03T04:44:55;6.40;;;3.70;;
37857;SDS011;23695;55.868;37.472;2022-09-03T04:47:22;7.18;;;3.13;;
37857;SDS011;23695;55.868;37.472;2022-09-03T04:49:49;3.33;;;3.03;;
37857;SDS011;23695;55.868;37.472;2022-09-03T04:52:16;3.75;;;3.20;;
37857;SDS011;23695;55.868;37.472;2022-09-03T04:54:45;4.97;;;3.38;;
37857;SDS011;23695;55.868;37.472;2022-09-03T04:57:12;4.75;;;2.70;;
37857;SDS011;23695;55.868;37.472;2022-09-03T04:59:39;5.05;;;3.13;;
37857;SDS011;23695;55.868;37.472;2022-09-03T05:02:06;4.10;;;2.50;;
37857;SDS011;23695;55.868;37.472;2022-09-03T05:04:35;6.72;;;3.08;;
37857;SDS011;23695;55.868;37.472;2022-09-03T05:07:02;4.68;;;3.17;;
37857;SDS011;23695;55.868;37.472;2022-09-03T05:09:29;4.70;;;3.40;;
37857;SDS011;23695;55.868;37.472;2022-09-03T05:11:56;6.28;;;2.97;;
37857;SDS011;23695;55.868;37.472;2022-09-03T05:14:23;5.57;;;3.28;;
37857;SDS011;23695;55.868;37.472;2022-09-03T05:16:51;5.55;;;3.15;;
37857;SDS011;23695;55.868;37.472;2022-09-03T05:19:18;4.78;;;3.70;;
37857;SDS011;23695;55.868;37.472;2022-09-03T05:21:46;4.28;;;3.42;;
37857;SDS011;23695;55.868;37.472;2022-09-03T05:24:13;4.88;;;3.58;;
37857;SDS011;23695;55.868;37.472;2022-09-03T05:26:40;5.78;;;3.15;;
37857;SDS011;23695;55.868;37.472;2022-09-03T05:29:07;5.47;;;3.45;;
37857;SDS011;23695;55.868;37.472;2022-09-03T05:31:36;5.97;;;3.60;;
37857;SDS011;23695;55.868;37.472;2022-09-03T05:34:05;7.40;;;3.63;;
37857;SDS011;23695;55.868;37.472;2022-09-03T05:36:34;5.70;;;3.15;;
37857;SDS011;23695;55.868;37.472;2022-09-03T05:39:03;3.17;;;2.92;;
37857;SDS011;23695;55.868;37.472;2022-09-03T05:41:31;5.82;;;2.55;;
37857;SDS011;23695;55.868;37.472;2022-09-03T05:44:00;3.83;;;2.35;;
37857;SDS011;23695;55.868;37.472;2022-09-03T05:46:29;3.10;;;2.40;;
37857;SDS011;23695;55.868;37.472;2022-09-03T05:48:58;3.17;;;2.10;;
37857;SDS011;23695;55.868;37.472;2022-09-03T05:51:32;6.22;;;2.50;;
37857;SDS011;23695;55.868;37.472;2022-09-03T05:54:01;3.63;;;1.70;;
37857;SDS011;23695;55.868;37.472;2022-09-03T05:56:30;2.95;;;1.95;;
37857;SDS011;23695;55.868;37.472;2022-09-03T05:58:59;2.78;;;2.10;;
37857;SDS011;23695;55.868;37.472;2022-09-03T06:01:32;5.05;;;2.42;;
37857;SDS011;23695;55.868;37.472;2022-09-03T06:04:01;2.57;;;1.60;;
37857;SDS011;23695;55.868;37.472;2022-09-03T06:06:31;1.70;;;1.50;;
37857;SDS011;23695;55.868;37.472;2022-09-03T06:09:02;1.98;;;1.77;;
37857;SDS011;23695;55.868;37.472;2022-09-03T06:11:34;1.80;;;1.30;;
37857;SDS011;23695;55.868;37.472;2022-09-03T06:14:05;1.65;;;1.52;;
37857;SDS011;23695;55.868;37.472;2022-09-03T06:16:37;2.17;;;1.48;;
37857;SDS011;23695;55.868;37.472;2022-09-03T06:19:09;3.00;;;1.65;;
37857;SDS011;23695;55.868;37.472;2022-09-03T06:21:37;3.30;;;1.27;;
37857;SDS011;23695;55.868;37.472;2022-09-03T06:24:09;2.88;;;1.80;;
37857;SDS011;23695;55.868;37.472;2022-09-03T06:26:38;2.33;;;1.20;;
37857;SDS011;23695;55.868;37.472;2022-09-03T06:29:08;2.70;;;1.30;;
37857;SDS011;23695;55.868;37.472;2022-09-03T06:31:36;4.40;;;1.30;;
37857;SDS011;23695;55.868;37.472;2022-09-03T06:34:03;8.15;;;1.45;;
37857;SDS011;23695;55.868;37.472;2022-09-03T06:36:31;1.95;;;1.45;;
37857;SDS011;23695;55.868;37.472;2022-09-03T06:38:59;4.88;;;1.02;;
37857;SDS011;23695;55.868;37.472;2022-09-03T06:41:28;3.75;;;0.93;;
37857;SDS011;23695;55.868;37.472;2022-09-03T06:43:59;2.75;;;0.93;;
37857;SDS011;23695;55.868;37.472;2022-09-03T06:46:30;2.53;;;1.10;;
37857;SDS011;23695;55.868;37.472;2022-09-03T06:48:58;2.72;;;1.30;;
37857;SDS011;23695;55.868;37.472;2022-09-03T06:51:27;3.13;;;1.30;;
37857;SDS011;23695;55.868;37.472;2022-09-03T06:54:00;1.60;;;1.10;;
37857;SDS011;23695;55.868;37.472;2022-09-03T06:56:28;3.85;;;1.00;;
37857;SDS011;23695;55.868;37.472;2022-09-03T06:59:03;1.23;;;1.00;;
37857;SDS011;23695;55.868;37.472;2022-09-03T07:01:32;3.20;;;0.80;;
37857;SDS011;23695;55.868;37.472;2022-09-03T07:04:01;2.40;;;1.23;;
37857;SDS011;23695;55.868;37.472;2022-09-03T07:06:34;2.60;;;0.93;;
37857;SDS011;23695;55.868;37.472;2022-09-03T07:09:07;1.25;;;1.10;;
37857;SDS011;23695;55.868;37.472;2022-09-03T07:11:35;2.47;;;0.95;;
37857;SDS011;23695;55.868;37.472;2022-09-03T07:14:04;4.27;;;1.13;;
37857;SDS011;23695;55.868;37.472;2022-09-03T07:16:32;2.75;;;0.95;;
37857;SDS011;23695;55.868;37.472;2022-09-03T07:19:01;1.92;;;1.17;;
37857;SDS011;23695;55.868;37.472;2022-09-03T07:21:31;1.52;;;0.98;;
37857;SDS011;23695;55.868;37.472;2022-09-03T07:24:03;2.22;;;0.90;;
37857;SDS011;23695;55.868;37.472;2022-09-03T07:26:36;2.15;;;0.80;;
37857;SDS011;23695;55.868;37.472;2022-09-03T07:29:05;1.13;;;0.85;;
37857;SDS011;23695;55.868;37.472;2022-09-03T07:31:34;4.70;;;0.88;;
37857;SDS011;23695;55.868;37.472;2022-09-03T07:34:06;3.30;;;0.82;;
37857;SDS011;23695;55.868;37.472;2022-09-03T07:36:37;5.00;;;0.90;;
37857;SDS011;23695;55.868;37.472;2022-09-03T07:39:07;3.53;;;1.00;;
37857;SDS011;23695;55.868;37.472;2022-09-03T07:41:37;2.38;;;0.90;;
37857;SDS011;23695;55.868;37.472;2022-09-03T07:44:06;2.00;;;0.80;;
37857;SDS011;23695;55.868;37.472;2022-09-03T07:46:35;3.15;;;1.10;;
37857;SDS011;23695;55.868;37.472;2022-09-03T07:49:04;2.05;;;0.80;;
37857;SDS011;23695;55.868;37.472;2022-09-03T07:51:33;3.50;;;1.00;;
37857;SDS011;23695;55.868;37.472;2022-09-03T07:54:06;2.58;;;0.95;;
37857;SDS011;23695;55.868;37.472;2022-09-03T07:56:37;1.55;;;1.00;;
37857;SDS011;23695;55.868;37.472;2022-09-03T07:59:05;2.67;;;0.90;;
37857;SDS011;23695;55.868;37.472;2022-09-03T08:01:34;2.58;;;1.30;;
37857;SDS011;23695;55.868;37.472;2022-09-03T08:04:04;1.20;;;1.00;;
37857;SDS011;23695;55.868;37.472;2022-09-03T08:06:35;2.65;;;1.10;;
37857;SDS011;23695;55.868;37.472;2022-09-03T08:09:05;5.15;;;1.45;;
37857;SDS011;23695;55.868;37.472;2022-09-03T08:11:37;5.50;;;1.40;;
37857;SDS011;23695;55.868;37.472;2022-09-03T08:14:07;4.80;;;1.25;;
37857;SDS011;23695;55.868;37.472;2022-09-03T08:16:37;2.05;;;1.40;;
37857;SDS011;23695;55.868;37.472;2022-09-03T08:19:08;6.18;;;1.40;;
37857;SDS011;23695;55.868;37.472;2022-09-03T08:21:36;2.50;;;1.27;;
37857;SDS011;23695;55.868;37.472;2022-09-03T08:24:04;5.57;;;1.42;;
37857;SDS011;23695;55.868;37.472;2022-09-03T08:26:32;2.50;;;1.20;;
37857;SDS011;23695;55.868;37.472;2022-09-03T08:29:01;1.70;;;1.17;;
37857;SDS011;23695;55.868;37.472;2022-09-03T08:31:29;2.47;;;1.30;;
37857;SDS011;23695;55.868;37.472;2022-09-03T08:33:58;3.35;;;1.38;;
37857;SDS011;23695;55.868;37.472;2022-09-03T08:36:34;4.40;;;1.50;;
37857;SDS011;23695;55.868;37.472;2022-09-03T08:39:03;2.97;;;1.33;;
37857;SDS011;23695;55.868;37.472;2022-09-03T08:44:30;2.83;;;1.45;;
37857;SDS011;23695;55.868;37.472;2022-09-03T08:55:26;1.08;;;0.98;;
37857;SDS011;23695;55.868;37.472;2022-09-03T08:58:03;5.35;;;1.20;;
37857;SDS011;23695;55.868;37.472;2022-09-03T09:14:25;3.13;;;1.33;;
37857;SDS011;23695;55.868;37.472;2022-09-03T09:17:24;3.90;;;0.95;;
37857;SDS011;23695;55.868;37.472;2022-09-03T09:22:40;1.40;;;1.20;;
37857;SDS011;23695;55.868;37.472;2022-09-03T09:25:17;1.52;;;1.33;;
37857;SDS011;23695;55.868;37.472;2022-09-03T09:27:49;2.85;;;1.17;;
37857;SDS011;23695;55.868;37.472;2022-09-03T09:30:20;3.83;;;1.52;;
37857;SDS011;23695;55.868;37.472;2022-09-03T09:32:48;4.90;;;1.42;;
37857;SDS011;23695;55.868;37.472;2022-09-03T09:35:16;3.88;;;1.30;;
37857;SDS011;23695;55.868;37.472;2022-09-03T09:37:51;1.40;;;1.00;;
37857;SDS011;23695;55.868;37.472;2022-09-03T09:45:42;4.28;;;0.98;;
37857;SDS011;23695;55.868;37.472;2022-09-03T09:50:48;1.13;;;1.02;;
37857;SDS011;23695;55.868;37.472;2022-09-03T09:53:16;1.33;;;1.05;;
37857;SDS011;23695;55.868;37.472;2022-09-03T09:55:51;1.20;;;1.10;;
37857;SDS011;23695;55.868;37.472;2022-09-03T09:58:24;1.10;;;1.00;;
37857;SDS011;23695;55.868;37.472;2022-09-03T10:01:04;2.03;;;1.20;;
37857;SDS011;23695;55.868;37.472;2022-09-03T10:03:47;2.55;;;1.63;;
37857;SDS011;23695;55.868;37.472;2022-09-03T10:06:30;7.65;;;1.60;;
37857;SDS011;23695;55.868;37.472;2022-09-03T10:09:17;6.35;;;1.40;;
37857;SDS011;23695;55.868;37.472;2022-09-03T10:11:47;5.57;;;3.13;;
37857;SDS011;23695;55.868;37.472;2022-09-03T10:14:19;4.32;;;1.13;;
37857;SDS011;23695;55.868;37.472;2022-09-03T10:16:53;1.40;;;0.93;;
37857;SDS011;23695;55.868;37.472;2022-09-03T10:19:34;2.42;;;1.25;;
37857;SDS011;23695;55.868;37.472;2022-09-03T10:22:11;3.70;;;1.23;;
37857;SDS011;23695;55.868;37.472;2022-09-03T10:24:50;4.30;;;1.40;;
37857;SDS011;23695;55.868;37.472;2022-09-03T10:27:23;3.22;;;1.20;;
37857;SDS011;23695;55.868;37.472;2022-09-03T10:29:51;1.98;;;1.30;;
37857;SDS011;23695;55.868;37.472;2022-09-03T10:35:31;6.60;;;1.00;;
37857;SDS011;23695;55.868;37.472;2022-09-03T10:41:11;2.15;;;1.20;;
37857;SDS011;23695;55.868;37.472;2022-09-03T10:55:04;2.15;;;1.25;;
37857;SDS011;23695;55.868;37.472;2022-09-03T11:00:06;5.18;;;1.08;;
37857;SDS011;23695;55.868;37.472;2022-09-03T11:08:31;4.45;;;1.13;;
37857;SDS011;23695;55.868;37.472;2022-09-03T11:11:10;2.50;;;1.13;;
37857;SDS011;23695;55.868;37.472;2022-09-03T11:16:41;1.58;;;1.15;;
37857;SDS011;23695;55.868;37.472;2022-09-03T11:19:17;3.78;;;1.20;;
37857;SDS011;23695;55.868;37.472;2022-09-03T11:21:49;4.70;;;1.30;;
37857;SDS011;23695;55.868;37.472;2022-09-03T11:24:22;3.90;;;1.40;;
37857;SDS011;23695;55.868;37.472;2022-09-03T11:26:54;9.40;;;1.70;;
37857;SDS011;23695;55.868;37.472;2022-09-03T11:32:39;5.65;;;1.15;;
37857;SDS011;23695;55.868;37.472;2022-09-03T11:35:16;6.00;;;1.02;;
37857;SDS011;23695;55.868;37.472;2022-09-03T11:37:58;1.90;;;1.13;;
37857;SDS011;23695;55.868;37.472;2022-09-03T11:41:02;2.38;;;1.20;;
37857;SDS011;23695;55.868;37.472;2022-09-03T11:43:47;1.42;;;1.05;;
37857;SDS011;23695;55.868;37.472;2022-09-03T11:48:55;2.80;;;1.25;;
37857;SDS011;23695;55.868;37.472;2022-09-03T11:51:37;1.55;;;1.20;;
37857;SDS011;23695;55.868;37.472;2022-09-03T11:56:46;1.27;;;0.93;;
37857;SDS011;23695;55.868;37.472;2022-09-03T11:59:16;1.65;;;1.05;;
37857;SDS011;23695;55.868;37.472;2022-09-03T12:18:24;6.20;;;1.42;;
37857;SDS011;23695;55.868;37.472;2022-09-03T12:23:28;6.72;;;1.08;;
37857;SDS011;23695;55.868;37.472;2022-09-03T12:26:02;1.30;;;0.98;;
37857;SDS011;23695;55.868;37.472;2022-09-03T12:28:35;1.95;;;1.30;;
37857;SDS011;23695;55.868;37.472;2022-09-03T12:31:13;1.45;;;0.90;;
37857;SDS011;23695;55.868;37.472;2022-09-03T12:34:02;2.40;;;1.33;;
37857;SDS011;23695;55.868;37.472;2022-09-03T12:36:39;5.03;;;1.48;;
37857;SDS011;23695;55.868;37.472;2022-09-03T12:39:09;1.92;;;1.17;;
37857;SDS011;23695;55.868;37.472;2022-09-03T12:44:28;2.03;;;1.30;;
37857;SDS011;23695;55.868;37.472;2022-09-03T12:47:11;2.47;;;1.90;;
37857;SDS011;23695;55.868;37.472;2022-09-03T12:50:04;4.35;;;2.50;;
37857;SDS011;23695;55.868;37.472;2022-09-03T12:52:35;2.53;;;1.80;;
37857;SDS011;23695;55.868;37.472;2022-09-03T12:55:46;1.30;;;1.05;;
37857;SDS011;23695;55.868;37.472;2022-09-03T13:00:47;4.50;;;1.40;;
37857;SDS011;23695;55.868;37.472;2022-09-03T13:03:30;2.08;;;1.40;;
37857;SDS011;23695;55.868;37.472;2022-09-03T13:06:02;3.30;;;1.80;;
37857;SDS011;23695;55.868;37.472;2022-09-03T13:08:45;2.95;;;1.58;;
37857;SDS011;23695;55.868;37.472;2022-09-03T13:11:17;3.10;;;1.50;;
37857;SDS011;23695;55.868;37.472;2022-09-03T13:13:54;3.17;;;1.20;;
37857;SDS011;23695;55.868;37.472;2022-09-03T13:22:16;2.35;;;1.58;;
37857;SDS011;23695;55.868;37.472;2022-09-03T13:34:36;3.60;;;1.73;;
37857;SDS011;23695;55.868;37.472;2022-09-03T13:37:17;2.22;;;1.20;;
37857;SDS011;23695;55.868;37.472;2022-09-03T13:39:52;2.97;;;1.50;;
37857;SDS011;23695;55.868;37.472;2022-09-03T13:42:26;2.85;;;1.60;;
37857;SDS011;23695;55.868;37.472;2022-09-03T13:48:19;4.47;;;1.40;;
37857;SDS011;23695;55.868;37.472;2022-09-03T13:51:18;7.07;;;1.90;;
37857;SDS011;23695;55.868;37.472;2022-09-03T14:03:16;3.75;;;2.10;;
37857;SDS011;23695;55.868;37.472;2022-09-03T14:11:26;6.03;;;1.92;;
37857;SDS011;23695;55.868;37.472;2022-09-03T14:19:11;2.42;;;1.92;;
37857;SDS011;23695;55.868;37.472;2022-09-03T14:22:12;3.10;;;1.75;;
37857;SDS011;23695;55.868;37.472;2022-09-03T14:24:51;1.90;;;1.58;;
37857;SDS011;23695;55.868;37.472;2022-09-03T14:27:26;4.32;;;1.70;;
37857;SDS011;23695;55.868;37.472;2022-09-03T14:30:02;5.80;;;1.60;;
37857;SDS011;23695;55.868;37.472;2022-09-03T14:35:30;3.83;;;2.25;;
37857;SDS011;23695;55.868;37.472;2022-09-03T14:44:36;4.28;;;1.38;;
37857;SDS011;23695;55.868;37.472;2022-09-03T15:01:34;3.38;;;1.40;;
37857;SDS011;23695;55.868;37.472;2022-09-03T15:10:04;2.88;;;1.65;;
37857;SDS011;23695;55.868;37.472;2022-09-03T15:12:36;2.25;;;1.48;;
37857;SDS011;23695;55.868;37.472;2022-09-03T15:15:18;7.05;;;1.80;;
37857;SDS011;23695;55.868;37.472;2022-09-03T15:37:07;3.13;;;1.92;;
37857;SDS011;23695;55.868;37.472;2022-09-03T15:42:21;8.00;;;2.10;;
37857;SDS011;23695;55.868;37.472;2022-09-03T15:44:54;4.80;;;2.22;;
37857;SDS011;23695;55.868;37.472;2022-09-03T15:47:36;4.57;;;2.40;;
37857;SDS011;23695;55.868;37.472;2022-09-03T15:50:34;4.18;;;2.88;;
37857;SDS011;23695;55.868;37.472;2022-09-03T15:56:13;8.90;;;2.80;;
37857;SDS011;23695;55.868;37.472;2022-09-03T15:58:51;2.80;;;2.10;;
37857;SDS011;23695;55.868;37.472;2022-09-03T16:01:26;5.28;;;2.67;;
37857;SDS011;23695;55.868;37.472;2022-09-03T16:07:37;9.85;;;2.22;;
37857;SDS011;23695;55.868;37.472;2022-09-03T16:09:55;5.07;;;2.25;;
37857;SDS011;23695;55.868;37.472;2022-09-03T16:15:39;6.15;;;3.50;;
37857;SDS011;23695;55.868;37.472;2022-09-03T16:26:22;6.65;;;2.88;;
37857;SDS011;23695;55.868;37.472;2022-09-03T16:29:08;4.07;;;2.50;;
37857;SDS011;23695;55.868;37.472;2022-09-03T16:43:09;3.55;;;2.58;;
37857;SDS011;23695;55.868;37.472;2022-09-03T16:46:15;12.48;;;2.90;;
37857;SDS011;23695;55.868;37.472;2022-09-03T16:51:35;5.07;;;3.25;;
37857;SDS011;23695;55.868;37.472;2022-09-03T16:54:12;9.25;;;3.03;;
37857;SDS011;23695;55.868;37.472;2022-09-03T16:59:35;7.00;;;3.00;;
37857;SDS011;23695;55.868;37.472;2022-09-03T17:10:54;7.88;;;3.00;;
37857;SDS011;23695;55.868;37.472;2022-09-03T17:25:51;3.53;;;2.25;;
37857;SDS011;23695;55.868;37.472;2022-09-03T17:54:06;10.60;;;4.53;;
37857;SDS011;23695;55.868;37.472;2022-09-03T17:56:39;7.07;;;4.40;;
37857;SDS011;23695;55.868;37.472;2022-09-03T18:01:53;8.27;;;3.60;;
37857;SDS011;23695;55.868;37.472;2022-09-03T18:04:49;5.70;;;3.53;;
37857;SDS011;23695;55.868;37.472;2022-09-03T18:07:23;6.15;;;4.00;;
37857;SDS011;23695;55.868;37.472;2022-09-03T18:12:36;12.85;;;4.28;;
37857;SDS011;23695;55.868;37.472;2022-09-03T18:15:31;8.38;;;4.22;;
37857;SDS011;23695;55.868;37.472;2022-09-03T18:18:19;7.03;;;3.78;;
37857;SDS011;23695;55.868;37.472;2022-09-03T18:20:54;6.38;;;3.35;;
37857;SDS011;23695;55.868;37.472;2022-09-03T18:27:03;7.32;;;3.53;;
37857;SDS011;23695;55.868;37.472;2022-09-03T18:30:00;8.90;;;4.47;;
37857;SDS011;23695;55.868;37.472;2022-09-03T18:32:50;9.85;;;3.58;;
37857;SDS011;23695;55.868;37.472;2022-09-03T18:35:36;5.43;;;3.17;;
37857;SDS011;23695;55.868;37.472;2022-09-03T18:38:25;5.88;;;4.07;;
37857;SDS011;23695;55.868;37.472;2022-09-03T18:48:38;8.57;;;3.83;;
37857;SDS011;23695;55.868;37.472;2022-09-03T19:00:58;8.95;;;5.28;;
37857;SDS011;23695;55.868;37.472;2022-09-03T19:07:01;12.80;;;4.75;;
37857;SDS011;23695;55.868;37.472;2022-09-03T19:22:03;10.63;;;5.88;;
37857;SDS011;23695;55.868;37.472;2022-09-03T19:25:03;15.13;;;5.07;;
37857;SDS011;23695;55.868;37.472;2022-09-03T19:31:01;9.93;;;5.57;;
37857;SDS011;23695;55.868;37.472;2022-09-03T19:46:54;7.85;;;3.78;;
37857;SDS011;23695;55.868;37.472;2022-09-03T19:49:48;5.57;;;3.55;;
37857;SDS011;23695;55.868;37.472;2022-09-03T19:55:46;7.72;;;3.60;;
37857;SDS011;23695;55.868;37.472;2022-09-03T19:58:37;7.68;;;3.60;;
37857;SDS011;23695;55.868;37.472;2022-09-03T20:01:30;10.75;;;4.55;;
37857;SDS011;23695;55.868;37.472;2022-09-03T20:04:20;7.20;;;3.58;;
37857;SDS011;23695;55.868;37.472;2022-09-03T20:07:16;7.65;;;3.75;;
37857;SDS011;23695;55.868;37.472;2022-09-03T20:10:04;7.95;;;3.00;;
37857;SDS011;23695;55.868;37.472;2022-09-03T20:12:52;9.65;;;3.55;;
37857;SDS011;23695;55.868;37.472;2022-09-03T20:23:56;5.78;;;3.40;;
37857;SDS011;23695;55.868;37.472;2022-09-03T20:26:44;8.48;;;3.80;;
37857;SDS011;23695;55.868;37.472;2022-09-03T20:32:35;6.93;;;4.00;;
37857;SDS011;23695;55.868;37.472;2022-09-03T20:49:22;4.47;;;3.60;;
37857;SDS011;23695;55.868;37.472;2022-09-03T21:00:13;8.80;;;4.07;;
37857;SDS011;23695;55.868;37.472;2022-09-03T21:08:13;12.50;;;3.78;;
37857;SDS011;23695;55.868;37.472;2022-09-03T21:15:54;6.60;;;3.55;;
37857;SDS011;23695;55.868;37.472;2022-09-03T21:21:23;6.10;;;3.38;;
37857;SDS011;23695;55.868;37.472;2022-09-03T21:24:10;4.57;;;3.17;;
37857;SDS011;23695;55.868;37.472;2022-09-03T21:26:49;4.38;;;3.03;;
37857;SDS011;23695;55.868;37.472;2022-09-03T21:29:26;6.10;;;3.17;;
37857;SDS011;23695;55.868;37.472;2022-09-03T21:32:01;4.07;;;2.97;;
37857;SDS011;23695;55.868;37.472;2022-09-03T21:37:11;5.03;;;3.50;;
37857;SDS011;23695;55.868;37.472;2022-09-03T21:42:20;4.75;;;3.05;;
37857;SDS011;23695;55.868;37.472;2022-09-03T21:45:07;5.22;;;3.45;;
37857;SDS011;23695;55.868;37.472;2022-09-03T21:47:48;9.30;;;3.92;;
37857;SDS011;23695;55.868;37.472;2022-09-03T21:50:27;5.90;;;3.83;;
37857;SDS011;23695;55.868;37.472;2022-09-03T22:01:09;6.25;;;3.95;;
37857;SDS011;23695;55.868;37.472;2022-09-03T22:03:43;6.15;;;4.18;;
37857;SDS011;23695;55.868;37.472;2022-09-03T22:06:13;8.52;;;4.10;;
37857;SDS011;23695;55.868;37.472;2022-09-03T22:08:54;5.88;;;3.80;;
37857;SDS011;23695;55.868;37.472;2022-09-03T22:14:19;5.53;;;4.43;;
37857;SDS011;23695;55.868;37.472;2022-09-03T22:16:52;5.82;;;4.15;;
37857;SDS011;23695;55.868;37.472;2022-09-03T22:19:25;10.02;;;4.25;;
37857;SDS011;23695;55.868;37.472;2022-09-03T22:21:54;7.05;;;4.00;;
37857;SDS011;23695;55.868;37.472;2022-09-03T22:27:40;7.45;;;4.50;;
37857;SDS011;23695;55.868;37.472;2022-09-03T22:30:14;10.73;;;4.55;;
37857;SDS011;23695;55.868;37.472;2022-09-03T22:43:48;7.15;;;4.50;;
37857;SDS011;23695;55.868;37.472;2022-09-03T22:46:24;9.77;;;4.70;;
37857;SDS011;23695;55.868;37.472;2022-09-03T22:52:07;11.27;;;4.78;;
37857;SDS011;23695;55.868;37.472;2022-09-03T22:58:27;7.90;;;4.55;;
37857;SDS011;23695;55.868;37.472;2022-09-03T23:00:41;9.43;;;4.50;;
37857;SDS011;23695;55.868;37.472;2022-09-03T23:03:21;7.75;;;4.88;;
37857;SDS011;23695;55.868;37.472;2022-09-03T23:06:01;7.40;;;4.85;;
37857;SDS011;23695;55.868;37.472;2022-09-03T23:08:43;7.47;;;4.72;;